Time;durP1;ratioP1;P1;durP2;ratioP2;P2;SDS_P1;SDS_P2;PMS_P1;PMS_P2;Temp;Humidity;BMP_temperature;BMP_pressure;BME280_temperature;BME280_humidity;BME280_pressure;Samples;Min_cycle;Max_cycle;Signal;HPM_P1;HPM_P2
2023/09/03 00:01:45;;;;;;;8.38;7.15;;;;;;;;;;5099124;28;20027;-58
2023/09/03 00:04:11;;;;;;;10.45;7.43;;;;;;;;;;5093852;28;20026;-58
2023/09/03 00:06:37;;;;;;;8.65;6.88;;;;;;;;;;5112828;28;20047;-57
2023/09/03 00:09:04;;;;;;;9.32;6.82;;;;;;;;;;5089502;28;20462;-56
2023/09/03 00:11:30;;;;;;;11.98;7.63;;;;;;;;;;5105086;28;20019;-58
2023/09/03 00:13:56;;;;;;;13.60;7.38;;;;;;;;;;5094851;28;20023;-58
2023/09/03 00:16:22;;;;;;;8.70;7.03;;;;;;;;;;5097896;28;20102;-57
2023/09/03 00:18:50;;;;;;;11.23;8.25;;;;;;;;;;5098250;28;20483;-58
2023/09/03 00:21:16;;;;;;;8.82;7.93;;;;;;;;;;5102823;28;20070;-59
2023/09/03 00:23:42;;;;;;;10.93;7.95;;;;;;;;;;5099851;28;20020;-59
2023/09/03 00:26:15;;;;;;;8.13;7.32;;;;;;;;;;5094380;28;20070;-59
2023/09/03 00:28:41;;;;;;;10.88;8.10;;;;;;;;;;5098546;28;20031;-58
2023/09/03 00:31:08;;;;;;;12.13;8.10;;;;;;;;;;5101086;28;20031;-59
2023/09/03 00:33:34;;;;;;;12.68;8.30;;;;;;;;;;5117129;28;20028;-56
2023/09/03 00:36:01;;;;;;;8.32;6.85;;;;;;;;;;5112206;28;20427;-59
2023/09/03 00:38:27;;;;;;;8.48;7.57;;;;;;;;;;5098864;28;20023;-58
2023/09/03 00:40:53;;;;;;;9.52;8.00;;;;;;;;;;5119365;27;20030;-59
2023/09/03 00:43:19;;;;;;;10.43;8.43;;;;;;;;;;5111344;28;20118;-58
2023/09/03 00:45:47;;;;;;;10.07;8.40;;;;;;;;;;5102072;28;20030;-58
2023/09/03 00:48:29;;;;;;;11.52;7.88;;;;;;;;;;5106861;27;20057;-58
2023/09/03 00:50:56;;;;;;;10.75;8.10;;;;;;;;;;5113098;27;20027;-58
2023/09/03 00:53:23;;;;;;;8.88;7.70;;;;;;;;;;5098389;28;20024;-59
2023/09/03 00:55:49;;;;;;;13.45;8.85;;;;;;;;;;5103474;28;20390;-59
2023/09/03 00:58:16;;;;;;;10.18;7.72;;;;;;;;;;5113563;28;20058;-58
2023/09/03 01:00:42;;;;;;;9.00;8.07;;;;;;;;;;5107074;27;20098;-58
2023/09/03 01:03:08;;;;;;;9.65;8.18;;;;;;;;;;5100919;28;20581;-57
2023/09/03 01:05:34;;;;;;;11.02;8.20;;;;;;;;;;5105564;27;20019;-58
2023/09/03 01:08:02;;;;;;;9.40;7.50;;;;;;;;;;5114495;28;20104;-59
2023/09/03 01:10:40;;;;;;;13.05;8.18;;;;;;;;;;5099432;28;20497;-58
2023/09/03 01:13:12;;;;;;;9.75;8.13;;;;;;;;;;5106244;28;20063;-58
2023/09/03 01:15:41;;;;;;;8.65;7.82;;;;;;;;;;5127891;27;20076;-58
2023/09/03 01:18:26;;;;;;;10.23;8.55;;;;;;;;;;5116163;27;20118;-58
2023/09/03 01:21:01;;;;;;;9.57;7.82;;;;;;;;;;5111607;27;20037;-58
2023/09/03 01:23:40;;;;;;;11.20;7.97;;;;;;;;;;5115980;28;20023;-56
2023/09/03 01:26:15;;;;;;;10.77;8.95;;;;;;;;;;5110174;28;20032;-59
2023/09/03 01:28:43;;;;;;;9.27;7.63;;;;;;;;;;5120368;27;20425;-56
2023/09/03 01:31:11;;;;;;;10.75;7.78;;;;;;;;;;5109173;27;20024;-57
2023/09/03 01:33:38;;;;;;;9.93;8.48;;;;;;;;;;5106942;28;20020;-59
2023/09/03 01:36:06;;;;;;;11.90;8.65;;;;;;;;;;5094080;28;20043;-58
2023/09/03 01:38:32;;;;;;;12.95;8.80;;;;;;;;;;5100593;28;20020;-57
2023/09/03 01:40:59;;;;;;;9.73;7.72;;;;;;;;;;5113311;28;20072;-58
2023/09/03 01:43:25;;;;;;;11.95;8.45;;;;;;;;;;5095879;28;20024;-58
2023/09/03 01:45:58;;;;;;;9.00;7.60;;;;;;;;;;5106980;28;20507;-58
2023/09/03 01:48:42;;;;;;;9.07;8.15;;;;;;;;;;5099628;28;20521;-58
2023/09/03 01:51:08;;;;;;;;;;;;;;;;;;5100650;28;20020;-57
2023/09/03 01:53:42;;;;;;;11.70;8.73;;;;;;;;;;5123731;27;19914;-58
2023/09/03 01:56:09;;;;;;;10.77;8.10;;;;;;;;;;5102808;28;20031;-57
2023/09/03 01:58:36;;;;;;;9.23;8.18;;;;;;;;;;5101756;28;20385;-58
2023/09/03 02:01:03;;;;;;;10.95;8.48;;;;;;;;;;5112652;28;20494;-58
2023/09/03 02:03:30;;;;;;;9.32;8.25;;;;;;;;;;5112495;28;20500;-57
2023/09/03 02:05:56;;;;;;;8.85;7.95;;;;;;;;;;5106650;28;20031;-58
2023/09/03 02:08:22;;;;;;;8.68;6.93;;;;;;;;;;5101414;28;20776;-58
2023/09/03 02:10:48;;;;;;;8.70;7.78;;;;;;;;;;5100180;28;20503;-57
2023/09/03 02:13:14;;;;;;;11.00;8.02;;;;;;;;;;5112046;28;20028;-58
2023/09/03 02:15:40;;;;;;;10.57;8.40;;;;;;;;;;5097450;28;20032;-57
2023/09/03 02:18:06;;;;;;;10.52;8.32;;;;;;;;;;5099698;28;20015;-56
2023/09/03 02:20:32;;;;;;;9.55;7.85;;;;;;;;;;5097801;28;20412;-57
2023/09/03 02:22:58;;;;;;;9.30;8.30;;;;;;;;;;5102895;28;20050;-58
2023/09/03 02:25:24;;;;;;;8.38;7.57;;;;;;;;;;5095199;28;20098;-58
2023/09/03 02:27:50;;;;;;;8.88;7.47;;;;;;;;;;5095592;28;20054;-58
2023/09/03 02:30:16;;;;;;;10.43;7.88;;;;;;;;;;5108156;28;20023;-58
2023/09/03 02:32:42;;;;;;;9.95;7.38;;;;;;;;;;5095072;28;20024;-58
2023/09/03 02:35:08;;;;;;;7.90;7.15;;;;;;;;;;5098315;28;20077;-58
2023/09/03 02:37:34;;;;;;;8.98;7.28;;;;;;;;;;5104819;28;20100;-58
2023/09/03 02:40:00;;;;;;;8.02;6.85;;;;;;;;;;5112782;28;20472;-57
2023/09/03 02:42:26;;;;;;;8.68;7.78;;;;;;;;;;5098358;28;20031;-58
2023/09/03 02:44:52;;;;;;;8.63;7.80;;;;;;;;;;5103651;28;20068;-58
2023/09/03 02:47:19;;;;;;;8.65;7.13;;;;;;;;;;5106246;28;20130;-58
2023/09/03 02:49:45;;;;;;;10.10;7.88;;;;;;;;;;5109890;28;20024;-58
2023/09/03 02:52:11;;;;;;;8.95;7.55;;;;;;;;;;5111600;28;20057;-56
2023/09/03 02:54:37;;;;;;;7.75;6.95;;;;;;;;;;5107075;28;20073;-57
2023/09/03 02:57:03;;;;;;;7.72;6.93;;;;;;;;;;5104219;28;20452;-57
2023/09/03 02:59:29;;;;;;;8.48;6.60;;;;;;;;;;5105823;28;20044;-57
2023/09/03 03:01:55;;;;;;;10.77;7.97;;;;;;;;;;5093455;28;20036;-56
2023/09/03 03:04:21;;;;;;;8.90;7.85;;;;;;;;;;5081562;28;20354;-58
2023/09/03 03:06:47;;;;;;;9.98;7.32;;;;;;;;;;5098597;28;20031;-58
2023/09/03 03:09:13;;;;;;;8.50;7.07;;;;;;;;;;5107574;28;20054;-57
2023/09/03 03:11:39;;;;;;;9.18;7.63;;;;;;;;;;5097101;28;20059;-58
2023/09/03 03:14:06;;;;;;;8.40;7.65;;;;;;;;;;5095501;28;20382;-58
2023/09/03 03:16:32;;;;;;;11.07;7.72;;;;;;;;;;5094146;28;20086;-58
2023/09/03 03:18:58;;;;;;;8.98;7.38;;;;;;;;;;5084311;28;20024;-56
2023/09/03 03:21:24;;;;;;;8.80;7.85;;;;;;;;;;5093853;28;20526;-58
2023/09/03 03:23:52;;;;;;;9.45;8.48;;;;;;;;;;5104560;28;20027;-58
2023/09/03 03:26:18;;;;;;;8.95;8.05;;;;;;;;;;5094000;28;20036;-58
2023/09/03 03:28:45;;;;;;;8.43;7.63;;;;;;;;;;5104954;28;20024;-58
2023/09/03 03:31:14;;;;;;;9.30;8.40;;;;;;;;;;5110542;27;20119;-58
2023/09/03 03:33:41;;;;;;;9.60;7.47;;;;;;;;;;5110627;27;20396;-58
2023/09/03 03:36:07;;;;;;;10.43;8.43;;;;;;;;;;5103418;28;20048;-58
2023/09/03 03:38:34;;;;;;;9.52;8.07;;;;;;;;;;5095857;28;20028;-58
2023/09/03 03:41:09;;;;;;;9.82;7.97;;;;;;;;;;5093559;28;20024;-57
2023/09/03 03:43:39;;;;;;;9.07;8.23;;;;;;;;;;5109865;28;20111;-56
2023/09/03 03:46:06;;;;;;;11.85;7.72;;;;;;;;;;5094959;28;20500;-57
2023/09/03 03:48:32;;;;;;;10.30;8.48;;;;;;;;;;5100682;28;20031;-58
2023/09/03 03:50:58;;;;;;;9.30;8.27;;;;;;;;;;5093693;28;20028;-57
2023/09/03 03:53:24;;;;;;;9.18;7.95;;;;;;;;;;5095633;28;20556;-57
2023/09/03 03:55:57;;;;;;;11.65;9.10;;;;;;;;;;5094798;27;20055;-58
2023/09/03 03:58:24;;;;;;;8.80;7.90;;;;;;;;;;5100887;28;20043;-58
2023/09/03 04:00:50;;;;;;;8.88;7.20;;;;;;;;;;5109651;28;20031;-58
2023/09/03 04:03:16;;;;;;;9.85;8.60;;;;;;;;;;5105928;28;20143;-58
2023/09/03 04:05:42;;;;;;;9.48;8.43;;;;;;;;;;5095727;28;20073;-58
2023/09/03 04:08:08;;;;;;;9.23;8.32;;;;;;;;;;5107299;28;20027;-58
2023/09/03 04:10:34;;;;;;;9.80;8.57;;;;;;;;;;5095706;28;20035;-59
2023/09/03 04:13:00;;;;;;;9.48;8.27;;;;;;;;;;5093437;28;20032;-58
2023/09/03 04:15:26;;;;;;;8.45;7.65;;;;;;;;;;5098797;28;20035;-58
2023/09/03 04:17:52;;;;;;;9.95;8.50;;;;;;;;;;5106460;28;20482;-57
2023/09/03 04:20:17;;;;;;;8.52;7.75;;;;;;;;;;5092101;28;20031;-57
2023/09/03 04:22:43;;;;;;;11.02;8.40;;;;;;;;;;5101990;28;20030;-56
2023/09/03 04:25:09;;;;;;;10.38;8.65;;;;;;;;;;5107565;28;20035;-57
2023/09/03 04:27:35;;;;;;;10.10;9.10;;;;;;;;;;5098030;28;20381;-58
2023/09/03 04:30:04;;;;;;;8.98;8.18;;;;;;;;;;5092884;28;20077;-58
2023/09/03 04:32:30;;;;;;;9.23;8.32;;;;;;;;;;5107014;28;20020;-57
2023/09/03 04:34:56;;;;;;;10.02;8.98;;;;;;;;;;5111035;28;21008;-58
2023/09/03 04:37:22;;;;;;;10.15;8.32;;;;;;;;;;5106778;28;20028;-57
2023/09/03 04:39:48;;;;;;;11.38;8.05;;;;;;;;;;5096533;28;20035;-58
2023/09/03 04:42:14;;;;;;;9.18;8.18;;;;;;;;;;5102267;28;20028;-57
2023/09/03 04:44:42;;;;;;;10.32;9.20;;;;;;;;;;5092848;28;20024;-59
2023/09/03 04:47:08;;;;;;;9.88;8.32;;;;;;;;;;5101333;28;20039;-57
2023/09/03 04:49:33;;;;;;;9.63;8.63;;;;;;;;;;5092698;28;20027;-58
2023/09/03 04:51:59;;;;;;;9.50;8.50;;;;;;;;;;5102173;28;20470;-57
2023/09/03 04:54:25;;;;;;;10.02;9.02;;;;;;;;;;5101213;28;20096;-58
2023/09/03 04:56:53;;;;;;;10.27;9.15;;;;;;;;;;5103585;28;20162;-58
2023/09/03 04:59:19;;;;;;;9.95;9.05;;;;;;;;;;5111765;28;20465;-59
2023/09/03 05:01:45;;;;;;;8.93;8.05;;;;;;;;;;5114117;28;20035;-59
2023/09/03 05:04:11;;;;;;;8.65;7.80;;;;;;;;;;5111631;28;20024;-56
2023/09/03 05:06:37;;;;;;;11.45;9.25;;;;;;;;;;5109311;28;20522;-57
2023/09/03 05:09:03;;;;;;;11.13;8.57;;;;;;;;;;5112696;28;20098;-58
2023/09/03 05:11:29;;;;;;;10.63;8.63;;;;;;;;;;5111593;28;20023;-57
2023/09/03 05:13:55;;;;;;;10.68;8.95;;;;;;;;;;5098835;28;20549;-57
2023/09/03 05:16:23;;;;;;;9.45;8.55;;;;;;;;;;5104408;28;20107;-57
2023/09/03 05:18:49;;;;;;;12.60;9.57;;;;;;;;;;5104212;28;20019;-57
2023/09/03 05:21:15;;;;;;;11.23;8.48;;;;;;;;;;5098160;28;20044;-58
2023/09/03 05:23:41;;;;;;;12.95;8.63;;;;;;;;;;5106283;28;20051;-58
2023/09/03 05:26:07;;;;;;;11.15;8.60;;;;;;;;;;5111792;28;22579;-58
2023/09/03 05:28:33;;;;;;;11.10;9.95;;;;;;;;;;5115236;28;20066;-57
2023/09/03 05:31:00;;;;;;;12.70;9.18;;;;;;;;;;5096179;28;20022;-58
2023/09/03 05:33:26;;;;;;;12.10;9.30;;;;;;;;;;5112163;27;20031;-58
2023/09/03 05:35:52;;;;;;;10.98;9.45;;;;;;;;;;5113668;28;20065;-57
2023/09/03 05:38:18;;;;;;;10.65;9.52;;;;;;;;;;5108754;28;20032;-58
2023/09/03 05:40:44;;;;;;;11.27;10.10;;;;;;;;;;5108859;28;20065;-58
2023/09/03 05:43:10;;;;;;;11.35;10.15;;;;;;;;;;5110271;28;20024;-58
2023/09/03 05:45:42;;;;;;;13.15;10.55;;;;;;;;;;5109868;28;20047;-57
2023/09/03 05:48:08;;;;;;;13.02;11.15;;;;;;;;;;5099623;28;20048;-58
2023/09/03 05:50:34;;;;;;;12.07;10.70;;;;;;;;;;5096068;28;20032;-58
2023/09/03 05:53:00;;;;;;;11.63;10.52;;;;;;;;;;5102446;28;20028;-58
2023/09/03 05:55:26;;;;;;;11.95;10.75;;;;;;;;;;5106789;28;20426;-58
2023/09/03 05:57:55;;;;;;;11.88;10.13;;;;;;;;;;5103370;28;20028;-57
2023/09/03 06:00:21;;;;;;;11.35;9.63;;;;;;;;;;5102146;28;20040;-58
2023/09/03 06:02:48;;;;;;;13.10;9.18;;;;;;;;;;5110744;28;20519;-58
2023/09/03 06:05:15;;;;;;;10.07;9.00;;;;;;;;;;5108869;28;20020;-58
2023/09/03 06:07:41;;;;;;;11.38;9.50;;;;;;;;;;5089983;28;20047;-58
2023/09/03 06:10:07;;;;;;;10.05;8.88;;;;;;;;;;5111631;27;20024;-58
2023/09/03 06:12:33;;;;;;;13.02;9.45;;;;;;;;;;5108624;27;20060;-58
2023/09/03 06:14:59;;;;;;;10.90;9.23;;;;;;;;;;5106314;28;20370;-58
2023/09/03 06:17:25;;;;;;;12.30;9.50;;;;;;;;;;5112303;28;20034;-57
2023/09/03 06:19:51;;;;;;;10.13;9.23;;;;;;;;;;5108484;28;20058;-58
2023/09/03 06:22:17;;;;;;;9.50;8.57;;;;;;;;;;5111221;28;20027;-58
2023/09/03 06:24:43;;;;;;;10.98;9.38;;;;;;;;;;5103873;28;20027;-58
2023/09/03 06:27:09;;;;;;;10.45;9.50;;;;;;;;;;5102458;28;20455;-57
2023/09/03 06:29:35;;;;;;;10.25;9.20;;;;;;;;;;5098577;28;20106;-58
2023/09/03 06:32:01;;;;;;;12.18;9.60;;;;;;;;;;5109906;28;20110;-58
2023/09/03 06:34:27;;;;;;;10.15;8.95;;;;;;;;;;5107799;28;20024;-58
2023/09/03 06:36:53;;;;;;;10.40;9.30;;;;;;;;;;5112514;28;20023;-58
2023/09/03 06:39:19;;;;;;;11.02;9.93;;;;;;;;;;5106382;28;20023;-58
2023/09/03 06:41:45;;;;;;;11.80;10.60;;;;;;;;;;5107809;28;20032;-58
2023/09/03 06:44:12;;;;;;;14.35;12.63;;;;;;;;;;5112522;28;20024;-57
2023/09/03 06:46:38;;;;;;;12.98;11.32;;;;;;;;;;5105772;28;20044;-58
2023/09/03 06:49:04;;;;;;;13.90;12.05;;;;;;;;;;5095495;28;20024;-61
2023/09/03 06:51:30;;;;;;;13.35;11.95;;;;;;;;;;5110626;27;20114;-59
2023/09/03 06:53:56;;;;;;;15.05;13.50;;;;;;;;;;5116267;27;20051;-59
2023/09/03 06:56:23;;;;;;;18.40;16.55;;;;;;;;;;5107361;27;20039;-59
2023/09/03 06:58:49;;;;;;;17.23;15.40;;;;;;;;;;5121870;27;20024;-59
2023/09/03 07:01:17;;;;;;;17.40;15.52;;;;;;;;;;5109818;27;20081;-60
2023/09/03 07:03:43;;;;;;;17.92;16.00;;;;;;;;;;5129526;27;20011;-60
2023/09/03 07:06:09;;;;;;;17.45;15.65;;;;;;;;;;5131518;27;20030;-60
2023/09/03 07:08:35;;;;;;;16.88;15.10;;;;;;;;;;5127389;27;20094;-60
2023/09/03 07:11:01;;;;;;;19.35;17.08;;;;;;;;;;5122226;27;20111;-59
2023/09/03 07:13:27;;;;;;;21.83;17.08;;;;;;;;;;5129658;27;20031;-59
2023/09/03 07:15:53;;;;;;;18.65;16.70;;;;;;;;;;5120513;27;20019;-59
2023/09/03 07:18:19;;;;;;;19.42;17.55;;;;;;;;;;5128814;27;20046;-59
2023/09/03 07:20:45;;;;;;;20.70;18.75;;;;;;;;;;5120378;27;20102;-60
2023/09/03 07:23:11;;;;;;;19.45;17.55;;;;;;;;;;5132784;27;20426;-60
2023/09/03 07:25:37;;;;;;;18.17;16.27;;;;;;;;;;5119585;27;20076;-60
2023/09/03 07:28:03;;;;;;;21.38;17.67;;;;;;;;;;5125860;27;20023;-59
2023/09/03 07:30:29;;;;;;;20.17;18.15;;;;;;;;;;5122350;27;20020;-59
2023/09/03 07:32:56;;;;;;;22.83;16.65;;;;;;;;;;5122286;27;20027;-59
2023/09/03 07:35:22;;;;;;;19.55;17.55;;;;;;;;;;5115570;27;20022;-60
2023/09/03 07:37:48;;;;;;;18.58;16.77;;;;;;;;;;5116952;27;20027;-60
2023/09/03 07:40:14;;;;;;;16.70;14.88;;;;;;;;;;5109296;27;20524;-60
2023/09/03 07:42:40;;;;;;;21.67;16.60;;;;;;;;;;5120460;27;20031;-59
2023/09/03 07:45:06;;;;;;;21.67;18.90;;;;;;;;;;5106986;28;20467;-59
2023/09/03 07:47:32;;;;;;;20.88;18.70;;;;;;;;;;5118984;27;20044;-59
2023/09/03 07:49:58;;;;;;;21.73;18.42;;;;;;;;;;5127626;27;20738;-61
2023/09/03 07:52:24;;;;;;;20.08;17.95;;;;;;;;;;5125494;27;20032;-61
2023/09/03 07:54:50;;;;;;;18.80;16.95;;;;;;;;;;5096480;27;20418;-64
2023/09/03 07:57:16;;;;;;;18.27;16.35;;;;;;;;;;5112958;27;20035;-63
2023/09/03 07:59:42;;;;;;;20.77;17.10;;;;;;;;;;5120066;27;20023;-64
2023/09/03 08:02:08;;;;;;;20.20;17.50;;;;;;;;;;5131773;27;20019;-71
2023/09/03 08:04:34;;;;;;;18.33;16.45;;;;;;;;;;5107407;28;20458;-69
2023/09/03 08:07:00;;;;;;;18.95;17.05;;;;;;;;;;5116815;27;20028;-69
2023/09/03 08:09:27;;;;;;;18.27;16.30;;;;;;;;;;5113521;27;20023;-69
2023/09/03 08:11:53;;;;;;;17.67;15.45;;;;;;;;;;5108329;28;20019;-66
2023/09/03 08:14:20;;;;;;;17.13;15.35;;;;;;;;;;5105097;28;20027;-71
2023/09/03 08:16:46;;;;;;;16.60;14.85;;;;;;;;;;5108130;27;20020;-65
2023/09/03 08:19:12;;;;;;;15.77;14.18;;;;;;;;;;5108748;28;20032;-68
2023/09/03 08:21:38;;;;;;;16.75;14.13;;;;;;;;;;5108848;28;20106;-68
2023/09/03 08:24:04;;;;;;;14.65;12.88;;;;;;;;;;5096288;28;20035;-67
2023/09/03 08:26:30;;;;;;;16.00;13.68;;;;;;;;;;5100684;28;20026;-67
2023/09/03 08:28:56;;;;;;;14.10;12.70;;;;;;;;;;5109099;28;20028;-67
2023/09/03 08:31:22;;;;;;;13.43;12.05;;;;;;;;;;5092969;28;20046;-67
2023/09/03 08:33:53;;;;;;;14.35;12.65;;;;;;;;;;5106952;28;20111;-67
2023/09/03 08:36:19;;;;;;;12.10;10.90;;;;;;;;;;5102622;28;20028;-67
2023/09/03 08:38:45;;;;;;;15.18;13.57;;;;;;;;;;5121589;28;20102;-67
2023/09/03 08:41:11;;;;;;;15.57;12.65;;;;;;;;;;5096598;28;20016;-67
2023/09/03 08:43:38;;;;;;;13.27;11.95;;;;;;;;;;5103033;28;20197;-67
2023/09/03 08:46:09;;;;;;;12.93;11.63;;;;;;;;;;5108580;28;20079;-67
2023/09/03 08:48:36;;;;;;;15.65;11.90;;;;;;;;;;5109093;28;20058;-67
2023/09/03 08:51:02;;;;;;;13.65;12.35;;;;;;;;;;5108420;28;20016;-67
2023/09/03 08:53:29;;;;;;;11.60;10.40;;;;;;;;;;5114603;28;20487;-68
2023/09/03 08:55:55;;;;;;;11.85;10.75;;;;;;;;;;5118345;28;20484;-67
2023/09/03 08:58:21;;;;;;;10.43;9.43;;;;;;;;;;5127153;28;20038;-67
2023/09/03 09:00:47;;;;;;;11.57;10.38;;;;;;;;;;5109139;28;20023;-67
2023/09/03 09:03:15;;;;;;;9.77;8.88;;;;;;;;;;5100937;28;20039;-67
2023/09/03 09:05:42;;;;;;;11.82;10.07;;;;;;;;;;5110921;28;20031;-67
2023/09/03 09:08:08;;;;;;;11.52;10.40;;;;;;;;;;5096714;28;20028;-67
2023/09/03 09:10:37;;;;;;;13.40;9.55;;;;;;;;;;5096489;28;20024;-67
2023/09/03 09:13:04;;;;;;;7.97;7.18;;;;;;;;;;5103372;28;20020;-68
2023/09/03 09:15:30;;;;;;;6.68;6.07;;;;;;;;;;5096637;28;20031;-67
2023/09/03 09:17:56;;;;;;;7.25;6.32;;;;;;;;;;5096557;28;20024;-67
2023/09/03 09:20:22;;;;;;;7.13;6.53;;;;;;;;;;5096694;28;20418;-67
2023/09/03 09:22:49;;;;;;;6.55;5.65;;;;;;;;;;5110000;28;20024;-67
2023/09/03 09:25:21;;;;;;;6.40;5.82;;;;;;;;;;5087846;28;20078;-67
2023/09/03 09:27:48;;;;;;;8.45;6.50;;;;;;;;;;5104058;28;20032;-67
2023/09/03 09:30:15;;;;;;;8.82;5.68;;;;;;;;;;5096306;28;20028;-67
2023/09/03 09:32:42;;;;;;;8.40;6.10;;;;;;;;;;5104886;28;20479;-68
2023/09/03 09:35:09;;;;;;;6.43;5.63;;;;;;;;;;5104081;28;20019;-67
2023/09/03 09:37:41;;;;;;;7.53;4.75;;;;;;;;;;5102646;28;20111;-67
2023/09/03 09:40:08;;;;;;;5.40;4.88;;;;;;;;;;5109436;28;20016;-67
2023/09/03 09:42:35;;;;;;;5.28;4.80;;;;;;;;;;5093061;28;20496;-67
2023/09/03 09:45:02;;;;;;;9.70;4.90;;;;;;;;;;5100151;28;20030;-67
2023/09/03 09:47:28;;;;;;;6.03;5.03;;;;;;;;;;5097665;28;20400;-67
2023/09/03 09:49:55;;;;;;;5.85;5.38;;;;;;;;;;5098442;28;20095;-67
2023/09/03 09:52:21;;;;;;;6.50;5.10;;;;;;;;;;5101460;28;20030;-67
2023/09/03 09:54:48;;;;;;;7.40;5.38;;;;;;;;;;5115144;27;20050;-67
2023/09/03 09:57:31;;;;;;;5.15;4.70;;;;;;;;;;5127020;27;20053;-67
2023/09/03 10:00:01;;;;;;;7.55;6.80;;;;;;;;;;5100478;28;20077;-67
2023/09/03 10:02:27;;;;;;;5.43;4.93;;;;;;;;;;5095666;28;20023;-67
2023/09/03 10:04:53;;;;;;;5.35;4.85;;;;;;;;;;5084555;28;20028;-67
2023/09/03 10:07:19;;;;;;;5.38;4.85;;;;;;;;;;5099488;28;20044;-66
2023/09/03 10:09:45;;;;;;;5.65;4.53;;;;;;;;;;5103936;28;20028;-67
2023/09/03 10:12:12;;;;;;;5.45;4.60;;;;;;;;;;5089753;28;20064;-67
2023/09/03 10:14:38;;;;;;;5.20;4.70;;;;;;;;;;5105655;28;20066;-67
2023/09/03 10:17:05;;;;;;;4.70;4.30;;;;;;;;;;5081169;28;20024;-67
2023/09/03 10:19:38;;;;;;;6.70;5.28;;;;;;;;;;5100996;28;20161;-67
2023/09/03 10:22:07;;;;;;;8.63;5.40;;;;;;;;;;5100186;28;20024;-67
2023/09/03 10:24:34;;;;;;;6.03;5.43;;;;;;;;;;5095444;28;20032;-67
2023/09/03 10:27:03;;;;;;;6.22;5.30;;;;;;;;;;5095116;28;20394;-67
2023/09/03 10:29:29;;;;;;;5.78;5.15;;;;;;;;;;5106934;28;20035;-67
2023/09/03 10:31:56;;;;;;;7.40;5.57;;;;;;;;;;5084637;28;20032;-67
2023/09/03 10:34:22;;;;;;;5.65;5.15;;;;;;;;;;5098563;28;20461;-69
2023/09/03 10:37:18;;;;;;;7.35;5.50;;;;;;;;;;5105074;28;20020;-67
2023/09/03 10:39:45;;;;;;;7.60;4.60;;;;;;;;;;5082526;28;20036;-67
2023/09/03 10:42:31;;;;;;;5.65;5.15;;;;;;;;;;5083899;28;20086;-67
2023/09/03 10:44:58;;;;;;;7.47;5.00;;;;;;;;;;5094930;28;20046;-66
2023/09/03 10:47:25;;;;;;;7.13;4.53;;;;;;;;;;5094618;28;20051;-67
2023/09/03 10:49:51;;;;;;;5.50;4.50;;;;;;;;;;5082533;28;20026;-67
2023/09/03 10:52:27;;;;;;;5.03;4.53;;;;;;;;;;5084553;28;20028;-67
2023/09/03 10:55:09;;;;;;;5.07;3.83;;;;;;;;;;5109413;28;20114;-67
2023/09/03 10:57:35;;;;;;;6.88;4.30;;;;;;;;;;5105365;28;20039;-67
2023/09/03 11:00:04;;;;;;;5.80;4.50;;;;;;;;;;5098935;28;20032;-67
2023/09/03 11:02:30;;;;;;;4.70;4.30;;;;;;;;;;5098101;28;20102;-67
2023/09/03 11:05:15;;;;;;;7.75;5.55;;;;;;;;;;5108382;28;20024;-67
2023/09/03 11:07:42;;;;;;;5.80;4.97;;;;;;;;;;5094303;28;20032;-67
2023/09/03 11:10:24;;;;;;;6.63;5.65;;;;;;;;;;5095054;28;20031;-67
2023/09/03 11:12:51;;;;;;;5.43;4.90;;;;;;;;;;5123895;27;20072;-67
2023/09/03 11:15:17;;;;;;;5.55;4.15;;;;;;;;;;5099112;27;20485;-67
2023/09/03 11:17:54;;;;;;;4.75;4.30;;;;;;;;;;5094270;28;20024;-67
2023/09/03 11:20:32;;;;;;;11.98;4.63;;;;;;;;;;5094348;28;20020;-67
2023/09/03 11:23:02;;;;;;;5.28;4.07;;;;;;;;;;5093456;28;20020;-67
2023/09/03 11:25:32;;;;;;;4.72;4.32;;;;;;;;;;5094741;28;20111;-68
2023/09/03 11:27:59;;;;;;;5.47;4.25;;;;;;;;;;5093995;28;20028;-66
2023/09/03 11:30:25;;;;;;;5.63;4.43;;;;;;;;;;5098365;28;20384;-67
2023/09/03 11:32:51;;;;;;;5.05;4.32;;;;;;;;;;5093949;28;20020;-66
2023/09/03 11:35:17;;;;;;;6.32;4.43;;;;;;;;;;5096198;28;20055;-66
2023/09/03 11:37:43;;;;;;;5.15;4.65;;;;;;;;;;5095814;28;20052;-67
2023/09/03 11:40:09;;;;;;;5.22;4.43;;;;;;;;;;5093788;28;20062;-65
2023/09/03 11:42:35;;;;;;;4.53;4.13;;;;;;;;;;5093965;28;20165;-66
2023/09/03 11:45:04;;;;;;;5.63;4.53;;;;;;;;;;5103530;28;20023;-67
2023/09/03 11:47:37;;;;;;;6.50;4.78;;;;;;;;;;5098531;28;20051;-66
2023/09/03 11:50:13;;;;;;;5.20;4.07;;;;;;;;;;5093588;28;20028;-66
2023/09/03 11:52:39;;;;;;;4.50;4.10;;;;;;;;;;5093504;28;20024;-66
2023/09/03 11:55:06;;;;;;;4.40;3.97;;;;;;;;;;5096382;28;20028;-66
2023/09/03 11:57:36;;;;;;;8.57;4.22;;;;;;;;;;5086389;28;20355;-66
2023/09/03 12:00:02;;;;;;;4.78;4.30;;;;;;;;;;5102574;28;20012;-66
2023/09/03 12:02:29;;;;;;;4.82;4.20;;;;;;;;;;5093527;28;20393;-66
2023/09/03 12:04:55;;;;;;;5.78;4.32;;;;;;;;;;5093251;28;20055;-66
2023/09/03 12:07:21;;;;;;;4.28;3.88;;;;;;;;;;5093183;28;20080;-66
2023/09/03 12:09:50;;;;;;;4.13;3.83;;;;;;;;;;5102117;28;20063;-67
2023/09/03 12:12:17;;;;;;;4.75;4.10;;;;;;;;;;5094569;28;20032;-67
2023/09/03 12:14:43;;;;;;;5.63;3.97;;;;;;;;;;5099310;28;20077;-67
2023/09/03 12:17:09;;;;;;;4.25;3.95;;;;;;;;;;5096457;28;20024;-67
2023/09/03 12:19:39;;;;;;;5.20;4.10;;;;;;;;;;5102706;27;20053;-67
2023/09/03 12:22:05;;;;;;;4.40;3.90;;;;;;;;;;5107391;27;20063;-67
2023/09/03 12:24:31;;;;;;;4.05;3.65;;;;;;;;;;5103542;28;20024;-66
2023/09/03 12:27:04;;;;;;;4.65;4.20;;;;;;;;;;5100823;28;20035;-73
2023/09/03 12:29:51;;;;;;;4.18;3.83;;;;;;;;;;5105651;27;20389;-74
2023/09/03 12:32:18;;;;;;;4.30;3.92;;;;;;;;;;5104921;28;20032;-73
2023/09/03 12:34:49;;;;;;;5.07;3.90;;;;;;;;;;5106928;28;20546;-74
2023/09/03 12:37:15;;;;;;;4.65;3.50;;;;;;;;;;5097377;28;20397;-74
2023/09/03 12:39:41;;;;;;;3.80;3.50;;;;;;;;;;5102619;28;20020;-73
2023/09/03 12:42:08;;;;;;;4.03;3.72;;;;;;;;;;5104501;28;20024;-74
2023/09/03 12:44:34;;;;;;;4.68;4.28;;;;;;;;;;5107128;28;20103;-73
2023/09/03 12:47:01;;;;;;;4.95;4.43;;;;;;;;;;5111706;28;20493;-73
2023/09/03 12:49:27;;;;;;;5.65;4.28;;;;;;;;;;5100049;28;20025;-74
2023/09/03 12:51:54;;;;;;;4.50;4.10;;;;;;;;;;5110024;28;20073;-74
2023/09/03 12:54:20;;;;;;;6.13;3.88;;;;;;;;;;5110135;28;20028;-74
2023/09/03 12:56:46;;;;;;;6.25;3.95;;;;;;;;;;5113924;28;20035;-74
2023/09/03 12:59:12;;;;;;;4.50;4.10;;;;;;;;;;5110253;28;20027;-75
2023/09/03 13:01:39;;;;;;;5.18;4.68;;;;;;;;;;5095964;28;20032;-74
2023/09/03 13:04:07;;;;;;;5.70;4.20;;;;;;;;;;5110311;28;20016;-72
2023/09/03 13:06:34;;;;;;;8.30;4.63;;;;;;;;;;5108053;28;20031;-71
2023/09/03 13:09:00;;;;;;;4.43;4.05;;;;;;;;;;5102231;28;20094;-72
2023/09/03 13:11:26;;;;;;;4.85;4.45;;;;;;;;;;5111360;28;20036;-72
2023/09/03 13:13:52;;;;;;;6.00;3.97;;;;;;;;;;5104856;28;20351;-72
2023/09/03 13:16:18;;;;;;;4.22;3.92;;;;;;;;;;5096475;28;20024;-75
2023/09/03 13:18:45;;;;;;;7.82;4.07;;;;;;;;;;5101054;28;20035;-69
2023/09/03 13:21:11;;;;;;;4.25;3.45;;;;;;;;;;5113019;28;20031;-70
2023/09/03 13:23:38;;;;;;;4.90;4.45;;;;;;;;;;5109128;28;20036;-71
2023/09/03 13:26:04;;;;;;;4.57;4.25;;;;;;;;;;5100874;28;20084;-71
2023/09/03 13:28:31;;;;;;;4.30;3.60;;;;;;;;;;5112195;28;20449;-71
2023/09/03 13:30:58;;;;;;;4.82;4.30;;;;;;;;;;5108169;28;20410;-71
2023/09/03 13:33:24;;;;;;;4.40;4.10;;;;;;;;;;5115267;28;20020;-69
2023/09/03 13:35:53;;;;;;;4.57;4.13;;;;;;;;;;5112993;28;20477;-69
2023/09/03 13:38:20;;;;;;;5.25;4.28;;;;;;;;;;5118186;28;20027;-70
2023/09/03 13:40:47;;;;;;;4.40;4.10;;;;;;;;;;5102170;28;20035;-70
2023/09/03 13:43:13;;;;;;;4.07;3.85;;;;;;;;;;5105186;28;20485;-70
2023/09/03 13:45:39;;;;;;;4.93;3.72;;;;;;;;;;5094723;28;20058;-70
2023/09/03 13:48:05;;;;;;;3.95;3.65;;;;;;;;;;5098351;28;20043;-70
2023/09/03 13:50:31;;;;;;;4.68;4.30;;;;;;;;;;5115887;27;20098;-69
2023/09/03 13:52:58;;;;;;;4.07;3.75;;;;;;;;;;5113850;28;20035;-70
2023/09/03 13:55:24;;;;;;;4.38;4.05;;;;;;;;;;5111809;28;20055;-69
2023/09/03 13:57:51;;;;;;;3.88;3.58;;;;;;;;;;5116026;27;20110;-69
2023/09/03 14:00:17;;;;;;;4.15;3.80;;;;;;;;;;5111131;27;20024;-69
2023/09/03 14:02:43;;;;;;;4.70;4.22;;;;;;;;;;5109367;28;20036;-69
2023/09/03 14:05:10;;;;;;;4.05;3.70;;;;;;;;;;5108861;28;20023;-69
2023/09/03 14:07:36;;;;;;;4.05;3.53;;;;;;;;;;5098154;28;20071;-69
2023/09/03 14:10:02;;;;;;;4.85;4.05;;;;;;;;;;5095375;28;20036;-70
2023/09/03 14:12:28;;;;;;;5.93;4.57;;;;;;;;;;5109110;27;20146;-70
2023/09/03 14:14:54;;;;;;;4.43;3.92;;;;;;;;;;5101656;28;20028;-70
2023/09/03 14:17:20;;;;;;;4.43;4.07;;;;;;;;;;5094355;28;20053;-70
2023/09/03 14:19:47;;;;;;;5.78;3.90;;;;;;;;;;5108520;27;20028;-69
2023/09/03 14:22:14;;;;;;;3.80;3.50;;;;;;;;;;5111237;27;20027;-69
2023/09/03 14:24:41;;;;;;;4.35;3.90;;;;;;;;;;5088314;28;20027;-69
2023/09/03 14:27:07;;;;;;;5.90;4.07;;;;;;;;;;5109958;27;20043;-70
2023/09/03 14:29:33;;;;;;;4.40;4.05;;;;;;;;;;5109009;27;20422;-70
2023/09/03 14:31:59;;;;;;;4.85;3.47;;;;;;;;;;5108787;27;20031;-69
2023/09/03 14:34:25;;;;;;;4.32;3.92;;;;;;;;;;5100267;28;20022;-69
2023/09/03 14:36:51;;;;;;;3.75;3.45;;;;;;;;;;5113743;27;20036;-69